createdAt,value
2018-06-23T00:00:44.439Z,12.53
2018-06-23T00:01:44.449Z,12.62
2018-06-23T00:02:44.640Z,12.58
2018-06-23T00:03:44.650Z,12.62
2018-06-23T00:04:44.465Z,12.64
2018-06-23T00:05:44.462Z,12.67
2018-06-23T00:06:44.452Z,12.64
2018-06-23T00:07:44.447Z,12.67
2018-06-23T00:08:44.437Z,12.67
2018-06-23T00:09:44.450Z,12.65
2018-06-23T00:10:44.440Z,12.65
2018-06-23T00:11:44.451Z,12.64
2018-06-23T00:12:44.645Z,12.65
2018-06-23T00:13:44.640Z,12.65
2018-06-23T00:14:44.449Z,12.57
2018-06-23T00:15:44.639Z,12.42
2018-06-23T00:16:44.640Z,12.43
2018-06-23T00:17:44.641Z,12.37
2018-06-23T00:18:44.438Z,12.42
2018-06-23T00:19:44.437Z,12.39
2018-06-23T00:20:44.437Z,12.35
2018-06-23T00:21:44.450Z,12.39
2018-06-23T00:22:44.437Z,12.42
2018-06-23T00:23:44.437Z,12.42
2018-06-23T00:24:44.437Z,12.36
2018-06-23T00:25:44.438Z,12.39
2018-06-23T00:26:44.448Z,12.39
2018-06-23T00:27:44.454Z,12.40
2018-06-23T00:28:44.438Z,12.40
2018-06-23T00:29:44.450Z,12.40
2018-06-23T00:30:44.441Z,12.37
2018-06-23T00:31:44.656Z,12.37
2018-06-23T00:32:44.638Z,12.35
2018-06-23T00:33:44.436Z,12.24
2018-06-23T00:34:44.435Z,12.27
2018-06-23T00:35:44.435Z,12.20
2018-06-23T00:36:44.449Z,12.10
2018-06-23T00:37:44.461Z,12.13
2018-06-23T00:38:44.436Z,12.00
2018-06-23T00:39:44.636Z,11.97
2018-06-23T00:40:44.445Z,11.87
2018-06-23T00:41:44.438Z,11.91
2018-06-23T00:42:44.436Z,11.78
2018-06-23T00:43:44.432Z,11.77
2018-06-23T00:44:44.437Z,11.70
2018-06-23T00:45:44.435Z,11.75
2018-06-23T00:46:44.443Z,11.68
2018-06-23T00:47:44.443Z,11.65
2018-06-23T00:48:44.635Z,11.70
2018-06-23T00:49:44.638Z,11.62
2018-06-23T00:50:44.432Z,11.55
2018-06-23T00:51:44.431Z,11.51
2018-06-23T00:52:44.434Z,11.57
2018-06-23T00:53:44.432Z,11.54
2018-06-23T00:54:44.442Z,11.37
2018-06-23T00:55:44.432Z,11.43
2018-06-23T00:56:44.459Z,11.50
2018-06-23T00:57:44.456Z,11.48
2018-06-23T00:58:44.432Z,11.45
2018-06-23T00:59:44.431Z,11.51
2018-06-23T01:00:44.432Z,11.44
2018-06-23T01:01:44.432Z,11.52
2018-06-23T01:02:44.655Z,11.50
2018-06-23T01:03:44.455Z,11.52
2018-06-23T01:04:44.635Z,11.66
2018-06-23T01:05:44.631Z,11.70
2018-06-23T01:06:44.631Z,11.83
2018-06-23T01:07:44.429Z,11.77
2018-06-23T01:08:44.428Z,11.75
2018-06-23T01:09:44.429Z,11.86
2018-06-23T01:10:44.636Z,11.86
2018-06-23T01:11:44.627Z,11.78
2018-06-23T01:12:44.438Z,11.81
2018-06-23T01:13:44.432Z,11.78
2018-06-23T01:14:44.441Z,11.77
2018-06-23T01:15:44.636Z,11.81
2018-06-23T01:16:44.647Z,11.81
2018-06-23T01:17:44.427Z,11.84
2018-06-23T01:18:44.435Z,11.86
2018-06-23T01:19:44.425Z,11.88
2018-06-23T01:20:44.424Z,11.97
2018-06-23T01:21:44.424Z,12.03
2018-06-23T01:22:44.631Z,11.91
2018-06-23T01:23:44.437Z,12.00
2018-06-23T01:24:44.625Z,11.91
2018-06-23T01:25:44.423Z,11.80
2018-06-23T01:26:44.423Z,11.90
2018-06-23T01:27:44.622Z,11.87
2018-06-23T01:28:44.431Z,11.83
2018-06-23T01:29:44.623Z,11.80
2018-06-23T01:30:44.421Z,11.81
2018-06-23T01:31:44.420Z,11.83
2018-06-23T01:32:44.429Z,11.78
2018-06-23T01:33:44.435Z,11.81
2018-06-23T01:34:44.630Z,11.84
2018-06-23T01:35:44.434Z,11.77
2018-06-23T01:36:44.418Z,11.86
2018-06-23T01:37:44.623Z,11.72
2018-06-23T01:38:44.426Z,11.83
2018-06-23T01:39:44.425Z,11.78
2018-06-23T01:40:44.414Z,11.63
2018-06-23T01:41:44.425Z,11.69
2018-06-23T01:42:44.415Z,11.59
2018-06-23T01:43:44.414Z,11.62
2018-06-23T01:44:44.422Z,11.59
2018-06-23T01:45:44.413Z,11.55
2018-06-23T01:46:44.413Z,11.55
2018-06-23T01:47:44.421Z,11.66
2018-06-23T01:48:44.411Z,11.70
2018-06-23T01:49:44.412Z,11.69
2018-06-23T01:50:44.409Z,11.52
2018-06-23T01:51:44.409Z,11.51
2018-06-23T01:52:44.613Z,11.55
2018-06-23T01:53:44.409Z,11.50
2018-06-23T01:54:44.411Z,11.43
2018-06-23T01:55:44.408Z,11.44
2018-06-23T01:56:44.423Z,11.37
2018-06-23T01:57:44.610Z,11.23
2018-06-23T01:58:44.407Z,11.15
2018-06-23T01:59:44.405Z,11.10
2018-06-23T02:00:44.417Z,11.15
2018-06-23T02:01:44.417Z,11.10
2018-06-23T02:02:44.404Z,11.07
2018-06-23T02:03:44.676Z,11.07
2018-06-23T02:04:44.419Z,10.94
2018-06-23T02:05:44.404Z,11.07
2018-06-23T02:06:44.405Z,10.94
2018-06-23T02:07:44.402Z,10.94
2018-06-23T02:08:44.402Z,10.82
2018-06-23T02:09:44.400Z,10.87
2018-06-23T02:10:44.399Z,10.94
2018-06-23T02:11:44.400Z,10.86
2018-06-23T02:12:44.402Z,10.84
2018-06-23T02:13:44.399Z,10.94
2018-06-23T02:14:44.601Z,10.90
2018-06-23T02:15:44.400Z,10.92
2018-06-23T02:16:44.613Z,10.79
2018-06-23T02:17:44.399Z,10.78
2018-06-23T02:18:44.398Z,10.71
2018-06-23T02:19:44.398Z,10.68
2018-06-23T02:20:44.394Z,10.68
2018-06-23T02:21:44.398Z,10.53
2018-06-23T02:22:44.417Z,10.59
2018-06-23T02:23:44.393Z,10.51
2018-06-23T02:24:44.395Z,10.41
2018-06-23T02:25:44.596Z,10.48
2018-06-23T02:26:44.399Z,10.44
2018-06-23T02:27:44.405Z,10.44
2018-06-23T02:28:44.404Z,10.33
2018-06-23T02:29:44.419Z,10.26
2018-06-23T02:30:44.410Z,10.26
2018-06-23T02:31:44.396Z,10.25
2018-06-23T02:32:44.605Z,10.26
2018-06-23T02:33:44.405Z,10.35
2018-06-23T02:34:44.390Z,10.26
2018-06-23T02:35:44.389Z,10.26
2018-06-23T02:36:44.389Z,10.30
2018-06-23T02:37:44.402Z,10.22
2018-06-23T02:38:44.590Z,10.26
2018-06-23T02:39:44.388Z,10.23
2018-06-23T02:40:44.405Z,10.22
2018-06-23T02:41:44.394Z,10.30
2018-06-23T02:42:44.390Z,10.25
2018-06-23T02:43:44.386Z,10.25
2018-06-23T02:44:44.393Z,10.26
2018-06-23T02:45:44.392Z,10.26
2018-06-23T02:46:44.599Z,10.37
2018-06-23T02:47:44.581Z,10.31
2018-06-23T02:48:44.410Z,10.31
2018-06-23T02:49:44.596Z,10.30
2018-06-23T02:50:44.391Z,10.33
2018-06-23T02:51:44.389Z,10.37
2018-06-23T02:52:44.389Z,10.41
2018-06-23T02:53:44.390Z,10.41
2018-06-23T02:54:44.392Z,10.41
2018-06-23T02:55:44.393Z,10.40
2018-06-23T02:56:44.376Z,10.37
2018-06-23T02:57:44.392Z,10.30
2018-06-23T02:58:44.576Z,10.30
2018-06-23T02:59:44.377Z,10.26
2018-06-23T03:00:44.375Z,10.31
2018-06-23T03:01:44.422Z,10.23
2018-06-23T03:02:44.399Z,10.23
2018-06-23T03:03:44.600Z,10.15
2018-06-23T03:04:44.373Z,10.17
2018-06-23T03:05:44.403Z,10.22
2018-06-23T03:06:44.370Z,10.16
2018-06-23T03:07:44.381Z,10.12
2018-06-23T03:08:44.582Z,10.12
2018-06-23T03:09:44.380Z,10.12
2018-06-23T03:10:44.587Z,10.09
2018-06-23T03:11:44.379Z,10.04
2018-06-23T03:12:44.567Z,10.13
2018-06-23T03:13:44.366Z,10.12
2018-06-23T03:14:44.434Z,10.13
2018-06-23T03:15:44.364Z,10.15
2018-06-23T03:16:44.367Z,10.15
2018-06-23T03:17:44.378Z,9.99
2018-06-23T03:18:44.380Z,9.97
2018-06-23T03:19:44.361Z,10.01
2018-06-23T03:20:44.372Z,9.98
2018-06-23T03:21:44.375Z,9.95
2018-06-23T03:22:44.372Z,10.04
2018-06-23T03:23:44.359Z,9.98
2018-06-23T03:24:44.563Z,9.86
2018-06-23T03:25:44.371Z,9.95
2018-06-23T03:26:44.369Z,9.98
2018-06-23T03:27:44.355Z,10.09
2018-06-23T03:28:44.365Z,10.04
2018-06-23T03:29:44.366Z,9.98
2018-06-23T03:30:44.353Z,9.98
2018-06-23T03:31:44.387Z,9.97
2018-06-23T03:32:44.353Z,9.98
2018-06-23T03:33:44.355Z,9.92
2018-06-23T03:34:44.354Z,9.92
2018-06-23T03:35:44.350Z,9.89
2018-06-23T03:36:44.363Z,9.74
2018-06-23T03:37:44.348Z,9.69
2018-06-23T03:38:44.365Z,9.65
2018-06-23T03:39:44.367Z,9.58
2018-06-23T03:40:44.357Z,9.62
2018-06-23T03:41:44.346Z,9.61
2018-06-23T03:42:44.546Z,9.56
2018-06-23T03:43:44.423Z,9.64
2018-06-23T03:44:44.371Z,9.59
2018-06-23T03:45:44.545Z,9.68
2018-06-23T03:46:44.360Z,9.73
2018-06-23T03:47:44.341Z,9.73
2018-06-23T03:48:44.342Z,9.73
2018-06-23T03:49:44.341Z,9.72
2018-06-23T03:50:44.352Z,9.69
2018-06-23T03:51:44.340Z,9.69
2018-06-23T03:52:44.353Z,9.76
2018-06-23T03:53:44.539Z,9.66
2018-06-23T03:54:44.336Z,9.82
2018-06-23T03:55:44.345Z,9.83
2018-06-23T03:56:44.544Z,9.82
2018-06-23T03:57:44.363Z,9.92
2018-06-23T03:58:44.335Z,9.86
2018-06-23T03:59:44.341Z,9.84
2018-06-23T04:00:44.344Z,9.82
2018-06-23T04:01:44.343Z,9.74
2018-06-23T04:02:44.353Z,9.79
2018-06-23T04:03:44.545Z,9.73
2018-06-23T04:04:44.359Z,9.80
2018-06-23T04:05:44.340Z,9.87
2018-06-23T04:06:44.340Z,9.84
2018-06-23T04:07:44.341Z,9.99
2018-06-23T04:08:44.340Z,9.97
2018-06-23T04:09:44.327Z,10.01
2018-06-23T04:10:44.324Z,10.09
2018-06-23T04:11:44.322Z,10.13
2018-06-23T04:12:44.343Z,10.13
2018-06-23T04:13:44.323Z,10.13
2018-06-23T04:14:44.324Z,10.26
2018-06-23T04:15:44.321Z,10.22
2018-06-23T04:16:44.356Z,10.26
2018-06-23T04:17:44.321Z,10.23
2018-06-23T04:18:44.330Z,10.16
2018-06-23T04:19:44.329Z,10.16
2018-06-23T04:20:44.334Z,10.07
2018-06-23T04:21:44.323Z,10.09
2018-06-23T04:22:44.317Z,10.13
2018-06-23T04:23:44.316Z,10.13
2018-06-23T04:24:44.519Z,10.10
2018-06-23T04:25:44.328Z,10.13
2018-06-23T04:26:44.526Z,10.02
2018-06-23T04:27:44.323Z,10.01
2018-06-23T04:28:44.313Z,10.04
2018-06-23T04:29:44.313Z,9.98
2018-06-23T04:30:44.312Z,10.01
2018-06-23T04:31:44.322Z,9.98
2018-06-23T04:32:44.314Z,10.05
2018-06-23T04:33:44.311Z,10.13
2018-06-23T04:34:44.324Z,10.10
2018-06-23T04:35:44.320Z,10.20
2018-06-23T04:36:44.519Z,10.17
2018-06-23T04:37:44.320Z,10.09
2018-06-23T04:38:44.309Z,10.17
2018-06-23T04:39:44.319Z,10.25
2018-06-23T04:40:44.517Z,10.20
2018-06-23T04:41:44.306Z,10.25
2018-06-23T04:42:44.316Z,10.31
2018-06-23T04:43:44.304Z,10.34
2018-06-23T04:44:44.302Z,10.38
2018-06-23T04:45:44.305Z,10.34
2018-06-23T04:46:44.304Z,10.44
2018-06-23T04:47:44.300Z,10.46
2018-06-23T04:48:44.312Z,10.44
2018-06-23T04:49:44.311Z,10.46
2018-06-23T04:50:44.301Z,10.46
2018-06-23T04:51:44.309Z,10.54
2018-06-23T04:52:44.309Z,10.64
2018-06-23T04:53:44.326Z,10.67
2018-06-23T04:54:44.297Z,10.69
2018-06-23T04:55:44.305Z,10.72
2018-06-23T04:56:44.306Z,10.89
2018-06-23T04:57:44.305Z,10.96
2018-06-23T04:58:44.326Z,11.10
2018-06-23T04:59:44.308Z,11.02
2018-06-23T05:00:44.312Z,11.12
2018-06-23T05:01:44.293Z,11.17
2018-06-23T05:02:44.302Z,11.18
2018-06-23T05:03:44.349Z,11.33
2018-06-23T05:04:44.293Z,11.26
2018-06-23T05:05:44.305Z,11.41
2018-06-23T05:06:44.306Z,11.44
2018-06-23T05:07:44.289Z,11.37
2018-06-23T05:08:44.497Z,11.55
2018-06-23T05:09:44.310Z,11.55
2018-06-23T05:10:44.500Z,11.60
2018-06-23T05:11:44.284Z,11.55
2018-06-23T05:12:44.285Z,11.59
2018-06-23T05:13:44.285Z,11.75
2018-06-23T05:14:44.284Z,11.68
2018-06-23T05:15:44.296Z,11.69
2018-06-23T05:16:44.294Z,11.83
2018-06-23T05:17:44.284Z,11.80
2018-06-23T05:18:44.496Z,11.80
2018-06-23T05:19:44.293Z,11.86
2018-06-23T05:20:44.298Z,11.84
2018-06-23T05:21:44.284Z,11.99
2018-06-23T05:22:44.284Z,11.99
2018-06-23T05:23:44.292Z,12.00
2018-06-23T05:24:44.482Z,12.07
2018-06-23T05:25:44.278Z,12.04
2018-06-23T05:26:44.278Z,11.97
2018-06-23T05:27:44.290Z,12.09
2018-06-23T05:28:44.278Z,12.09
2018-06-23T05:29:44.288Z,12.13
2018-06-23T05:30:44.279Z,12.04
2018-06-23T05:31:44.348Z,12.10
2018-06-23T05:32:44.276Z,12.10
2018-06-23T05:33:44.479Z,12.15
2018-06-23T05:34:44.505Z,12.20
2018-06-23T05:35:44.275Z,12.27
2018-06-23T05:36:44.480Z,12.29
2018-06-23T05:37:44.304Z,12.24
2018-06-23T05:38:44.286Z,12.24
2018-06-23T05:39:44.475Z,12.28
2018-06-23T05:40:44.276Z,12.32
2018-06-23T05:41:44.275Z,12.40
2018-06-23T05:42:44.287Z,12.29
2018-06-23T05:43:44.271Z,12.35
2018-06-23T05:44:44.354Z,12.37
2018-06-23T05:45:44.273Z,12.36
2018-06-23T05:46:44.299Z,12.39
2018-06-23T05:47:44.271Z,12.40
2018-06-23T05:48:44.269Z,12.40
2018-06-23T05:49:44.270Z,12.35
2018-06-23T05:50:44.282Z,12.40
2018-06-23T05:51:44.279Z,12.37
2018-06-23T05:52:44.270Z,12.35
2018-06-23T05:53:44.268Z,12.29
2018-06-23T05:54:44.277Z,12.29
2018-06-23T05:55:44.266Z,12.31
2018-06-23T05:56:44.277Z,12.39
2018-06-23T05:57:44.264Z,12.27
2018-06-23T05:58:44.268Z,12.29
2018-06-23T05:59:44.264Z,12.29
2018-06-23T06:00:44.329Z,12.35
2018-06-23T06:01:44.265Z,12.27
2018-06-23T06:02:44.279Z,12.27
2018-06-23T06:03:44.465Z,12.25
2018-06-23T06:04:44.274Z,12.24
2018-06-23T06:05:44.274Z,12.32
2018-06-23T06:06:44.265Z,12.35
2018-06-23T06:07:44.262Z,12.39
2018-06-23T06:08:44.261Z,12.29
2018-06-23T06:09:44.287Z,12.28
2018-06-23T06:10:44.276Z,12.37
2018-06-23T06:11:44.296Z,12.31
2018-06-23T06:12:44.460Z,12.35
2018-06-23T06:13:44.262Z,12.37
2018-06-23T06:14:44.265Z,12.36
2018-06-23T06:15:44.268Z,12.39
2018-06-23T06:16:44.257Z,12.40
2018-06-23T06:17:44.459Z,12.42
2018-06-23T06:18:44.255Z,12.42
2018-06-23T06:19:44.275Z,12.42
2018-06-23T06:20:44.270Z,12.37
2018-06-23T06:21:44.266Z,12.39
2018-06-23T06:22:44.269Z,12.39
2018-06-23T06:23:44.295Z,12.43
2018-06-23T06:24:44.455Z,12.45
2018-06-23T06:25:44.254Z,12.49
2018-06-23T06:26:44.458Z,12.49
2018-06-23T06:27:44.255Z,12.54
2018-06-23T06:28:44.251Z,12.55
2018-06-23T06:29:44.251Z,12.57
2018-06-23T06:30:44.281Z,12.50
2018-06-23T06:31:44.251Z,12.50
2018-06-23T06:32:44.255Z,12.50
2018-06-23T06:33:44.249Z,12.37
2018-06-23T06:34:44.250Z,12.50
2018-06-23T06:35:44.300Z,12.37
2018-06-23T06:36:44.267Z,12.39
2018-06-23T06:37:44.255Z,12.43
2018-06-23T06:38:44.273Z,12.45
2018-06-23T06:39:44.248Z,12.53
2018-06-23T06:40:44.449Z,12.53
2018-06-23T06:41:44.247Z,12.64
2018-06-23T06:42:44.264Z,12.65
2018-06-23T06:43:44.256Z,12.64
2018-06-23T06:44:44.250Z,12.64
2018-06-23T06:45:44.258Z,12.64
2018-06-23T06:46:44.257Z,12.65
2018-06-23T06:47:44.249Z,12.54
2018-06-23T06:48:44.274Z,12.65
2018-06-23T06:49:44.248Z,12.58
2018-06-23T06:50:44.263Z,12.64
2018-06-23T06:51:44.245Z,12.53
2018-06-23T06:52:44.259Z,12.55
2018-06-23T06:53:44.259Z,12.43
2018-06-23T06:54:44.242Z,12.47
2018-06-23T06:55:44.243Z,12.43
2018-06-23T06:56:44.263Z,12.40
2018-06-23T06:57:44.239Z,12.42
2018-06-23T06:58:44.239Z,12.39
2018-06-23T06:59:44.468Z,12.36
2018-06-23T07:00:44.445Z,12.27
2018-06-23T07:01:44.270Z,12.31
2018-06-23T07:02:44.241Z,12.21
2018-06-23T07:03:44.259Z,12.27
2018-06-23T07:04:44.277Z,12.25
2018-06-23T07:05:44.241Z,12.24
2018-06-23T07:06:44.239Z,12.24
2018-06-23T07:07:44.246Z,12.20
2018-06-23T07:08:44.244Z,12.27
2018-06-23T07:09:44.249Z,12.12
2018-06-23T07:10:44.243Z,12.06
2018-06-23T07:11:44.233Z,12.18
2018-06-23T07:12:44.247Z,12.04
2018-06-23T07:13:44.235Z,11.91
2018-06-23T07:14:44.247Z,11.99
2018-06-23T07:15:44.231Z,11.95
2018-06-23T07:16:44.245Z,11.86
2018-06-23T07:17:44.291Z,11.97
2018-06-23T07:18:44.234Z,11.94
2018-06-23T07:19:44.241Z,12.07
2018-06-23T07:20:44.228Z,12.06
2018-06-23T07:21:44.242Z,12.09
2018-06-23T07:22:44.258Z,12.10
2018-06-23T07:23:44.327Z,12.24
2018-06-23T07:24:44.440Z,12.27
2018-06-23T07:25:44.225Z,12.35
2018-06-23T07:26:44.225Z,12.36
2018-06-23T07:27:44.429Z,12.39
2018-06-23T07:28:44.225Z,12.36
2018-06-23T07:29:44.236Z,12.54
2018-06-23T07:30:44.284Z,12.50
2018-06-23T07:31:44.245Z,12.67
2018-06-23T07:32:44.240Z,12.85
2018-06-23T07:33:44.223Z,12.80
2018-06-23T07:34:44.309Z,12.85
2018-06-23T07:35:44.222Z,12.95
2018-06-23T07:36:44.224Z,13.01
2018-06-23T07:37:44.237Z,13.13
2018-06-23T07:38:44.423Z,13.23
2018-06-23T07:39:44.225Z,13.27
2018-06-23T07:40:44.236Z,13.23
2018-06-23T07:41:44.219Z,13.37
2018-06-23T07:42:44.250Z,13.47
2018-06-23T07:43:44.229Z,13.59
2018-06-23T07:44:44.220Z,13.56
2018-06-23T07:45:44.233Z,13.57
2018-06-23T07:46:44.234Z,13.53
2018-06-23T07:47:44.219Z,13.62
2018-06-23T07:48:44.239Z,13.62
2018-06-23T07:49:44.231Z,13.63
2018-06-23T07:50:44.222Z,13.74
2018-06-23T07:51:44.228Z,13.75
2018-06-23T07:52:44.228Z,13.79
2018-06-23T07:53:44.227Z,13.78
2018-06-23T07:54:44.248Z,13.89
2018-06-23T07:55:44.215Z,13.87
2018-06-23T07:56:44.229Z,13.92
2018-06-23T07:57:44.418Z,13.96
2018-06-23T07:58:44.226Z,13.93
2018-06-23T07:59:44.220Z,13.87
2018-06-23T08:00:44.231Z,13.85
2018-06-23T08:01:44.316Z,13.93
2018-06-23T08:02:44.219Z,13.86
2018-06-23T08:03:44.230Z,13.89
2018-06-23T08:04:44.215Z,13.95
2018-06-23T08:05:44.226Z,13.90
2018-06-23T08:06:44.218Z,13.95
2018-06-23T08:07:44.214Z,13.87
2018-06-23T08:08:44.231Z,13.92
2018-06-23T08:09:44.215Z,13.87
2018-06-23T08:10:44.226Z,14.04
2018-06-23T08:11:44.266Z,14.03
2018-06-23T08:12:44.214Z,14.15
2018-06-23T08:13:44.231Z,14.23
2018-06-23T08:14:44.228Z,14.23
2018-06-23T08:15:44.240Z,14.30
2018-06-23T08:16:44.219Z,14.33
2018-06-23T08:17:44.227Z,14.51
2018-06-23T08:18:44.216Z,14.54
2018-06-23T08:19:44.218Z,14.51
2018-06-23T08:20:44.216Z,14.51
2018-06-23T08:21:44.231Z,14.65
2018-06-23T08:22:44.218Z,14.72
2018-06-23T08:23:44.229Z,14.72
2018-06-23T08:24:44.217Z,14.66
2018-06-23T08:25:44.230Z,14.77
2018-06-23T08:26:44.533Z,14.63
2018-06-23T08:27:44.233Z,14.60
2018-06-23T08:28:44.246Z,14.58
2018-06-23T08:29:44.218Z,14.54
2018-06-23T08:30:44.421Z,14.58
2018-06-23T08:31:44.249Z,14.72
2018-06-23T08:32:44.232Z,14.73
2018-06-23T08:33:44.222Z,14.66
2018-06-23T08:34:44.230Z,14.60
2018-06-23T08:35:44.221Z,14.68
2018-06-23T08:36:44.230Z,14.77
2018-06-23T08:37:44.257Z,14.79
2018-06-23T08:38:44.233Z,14.79
2018-06-23T08:39:44.223Z,14.91
2018-06-23T08:40:44.441Z,14.88
2018-06-23T08:41:44.221Z,14.91
2018-06-23T08:42:44.224Z,14.86
2018-06-23T08:43:44.287Z,14.73
2018-06-23T08:44:44.221Z,14.79
2018-06-23T08:45:44.237Z,14.81
2018-06-23T08:46:44.249Z,14.78
2018-06-23T08:47:44.235Z,14.66
2018-06-23T08:48:44.224Z,14.58
2018-06-23T08:49:44.225Z,14.51
2018-06-23T08:50:44.228Z,14.37
2018-06-23T08:51:44.238Z,14.32
2018-06-23T08:52:44.225Z,14.25
2018-06-23T08:53:44.225Z,14.23
2018-06-23T08:54:44.224Z,14.18
2018-06-23T08:55:44.256Z,14.15
2018-06-23T08:56:44.226Z,14.07
2018-06-23T08:57:44.430Z,14.08
2018-06-23T08:58:44.247Z,14.08
2018-06-23T08:59:44.426Z,14.04
2018-06-23T09:00:44.229Z,14.05
2018-06-23T09:01:44.241Z,14.05
2018-06-23T09:02:44.236Z,14.18
2018-06-23T09:03:44.244Z,14.12
2018-06-23T09:04:44.228Z,14.14
2018-06-23T09:05:44.444Z,14.17
2018-06-23T09:06:44.240Z,14.20
2018-06-23T09:07:44.240Z,14.36
2018-06-23T09:08:44.244Z,14.51
2018-06-23T09:09:44.243Z,14.72
2018-06-23T09:10:44.230Z,14.77
2018-06-23T09:11:44.229Z,14.84
2018-06-23T09:12:44.234Z,15.02
2018-06-23T09:13:44.296Z,15.18
2018-06-23T09:14:44.447Z,15.28
2018-06-23T09:15:44.247Z,15.47
2018-06-23T09:16:44.275Z,15.61
2018-06-23T09:17:44.232Z,15.64
2018-06-23T09:18:44.235Z,15.65
2018-06-23T09:19:44.237Z,15.62
2018-06-23T09:20:44.248Z,15.57
2018-06-23T09:21:44.265Z,15.46
2018-06-23T09:22:44.237Z,15.43
2018-06-23T09:23:44.237Z,15.31
2018-06-23T09:24:44.239Z,15.25
2018-06-23T09:25:44.277Z,15.15
2018-06-23T09:26:44.439Z,15.09
2018-06-23T09:27:44.235Z,15.03
2018-06-23T09:28:44.236Z,14.94
2018-06-23T09:29:44.248Z,14.92
2018-06-23T09:30:44.253Z,14.82
2018-06-23T09:31:44.252Z,14.82
2018-06-23T09:32:44.252Z,14.79
2018-06-23T09:33:44.240Z,14.68
2018-06-23T09:34:44.255Z,14.73
2018-06-23T09:35:44.251Z,14.62
2018-06-23T09:36:44.242Z,14.62
2018-06-23T09:37:44.243Z,14.62
2018-06-23T09:38:44.242Z,14.50
2018-06-23T09:39:44.241Z,14.58
2018-06-23T09:40:44.243Z,14.53
2018-06-23T09:41:44.240Z,14.53
2018-06-23T09:42:44.242Z,14.50
2018-06-23T09:43:44.252Z,14.62
2018-06-23T09:44:44.267Z,14.66
2018-06-23T09:45:44.259Z,14.73
2018-06-23T09:46:44.244Z,14.78
2018-06-23T09:47:44.254Z,14.94
2018-06-23T09:48:44.260Z,15.00
2018-06-23T09:49:44.261Z,15.21
2018-06-23T09:50:44.257Z,15.40
2018-06-23T09:51:44.252Z,15.39
2018-06-23T09:52:44.257Z,15.54
2018-06-23T09:53:44.246Z,15.54
2018-06-23T09:54:44.248Z,15.59
2018-06-23T09:55:44.259Z,15.65
2018-06-23T09:56:44.260Z,15.62
2018-06-23T09:57:44.246Z,15.52
2018-06-23T09:58:44.250Z,15.52
2018-06-23T09:59:44.267Z,15.44
2018-06-23T10:00:44.248Z,15.47
2018-06-23T10:01:44.248Z,15.46
2018-06-23T10:02:44.249Z,15.46
2018-06-23T10:03:44.463Z,15.39
2018-06-23T10:04:44.263Z,15.33
2018-06-23T10:05:44.271Z,15.39
2018-06-23T10:06:44.278Z,15.31
2018-06-23T10:07:44.262Z,15.37
2018-06-23T10:08:44.263Z,15.19
2018-06-23T10:09:44.262Z,15.25
2018-06-23T10:10:44.284Z,15.19
2018-06-23T10:11:44.464Z,15.19
2018-06-23T10:12:44.453Z,15.04
2018-06-23T10:13:44.457Z,15.14
2018-06-23T10:14:44.256Z,15.14
2018-06-23T10:15:44.268Z,15.06
2018-06-23T10:16:44.256Z,15.06
2018-06-23T10:17:44.256Z,15.00
2018-06-23T10:18:44.267Z,15.04
2018-06-23T10:19:44.256Z,15.00
2018-06-23T10:20:44.472Z,15.07
2018-06-23T10:21:44.261Z,15.02
2018-06-23T10:22:44.256Z,15.04
2018-06-23T10:23:44.321Z,15.10
2018-06-23T10:24:44.256Z,15.14
2018-06-23T10:25:44.257Z,15.09
2018-06-23T10:26:44.260Z,15.17
2018-06-23T10:27:44.259Z,15.17
2018-06-23T10:28:44.277Z,15.22
2018-06-23T10:29:44.257Z,15.29
2018-06-23T10:30:44.261Z,15.39
2018-06-23T10:31:44.462Z,15.42
2018-06-23T10:32:44.261Z,15.49
2018-06-23T10:33:44.290Z,15.46
2018-06-23T10:34:44.263Z,15.55
2018-06-23T10:35:44.266Z,15.52
2018-06-23T10:36:44.262Z,15.58
2018-06-23T10:37:44.263Z,15.52
2018-06-23T10:38:44.263Z,15.62
2018-06-23T10:39:44.264Z,15.47
2018-06-23T10:40:44.264Z,15.43
2018-06-23T10:41:44.266Z,15.43
2018-06-23T10:42:44.265Z,15.36
2018-06-23T10:43:44.269Z,15.33
2018-06-23T10:44:44.288Z,15.33
2018-06-23T10:45:44.268Z,15.42
2018-06-23T10:46:44.475Z,15.37
2018-06-23T10:47:44.266Z,15.52
2018-06-23T10:48:44.277Z,15.51
2018-06-23T10:49:44.279Z,15.65
2018-06-23T10:50:44.270Z,15.65
2018-06-23T10:51:44.269Z,15.64
2018-06-23T10:52:44.268Z,15.65
2018-06-23T10:53:44.269Z,15.68
2018-06-23T10:54:44.269Z,15.80
2018-06-23T10:55:44.279Z,15.70
2018-06-23T10:56:44.279Z,15.84
2018-06-23T10:57:44.490Z,15.76
2018-06-23T10:58:44.283Z,15.84
2018-06-23T10:59:44.487Z,15.84
2018-06-23T11:00:44.271Z,15.94
2018-06-23T11:01:44.302Z,15.92
2018-06-23T11:02:44.285Z,15.94
2018-06-23T11:03:44.275Z,16.02
2018-06-23T11:04:44.360Z,16.09
2018-06-23T11:05:44.277Z,16.10
2018-06-23T11:06:44.277Z,16.15
2018-06-23T11:07:44.287Z,16.31
2018-06-23T11:08:44.276Z,16.33
2018-06-23T11:09:44.280Z,16.39
2018-06-23T11:10:44.288Z,16.61
2018-06-23T11:11:44.287Z,16.43
2018-06-23T11:12:44.280Z,16.47
2018-06-23T11:13:44.279Z,16.38
2018-06-23T11:14:44.295Z,16.41
2018-06-23T11:15:44.298Z,16.39
2018-06-23T11:16:44.293Z,16.33
2018-06-23T11:17:44.282Z,16.29
2018-06-23T11:18:44.284Z,16.26
2018-06-23T11:19:44.292Z,16.31
2018-06-23T11:20:44.296Z,16.23
2018-06-23T11:21:44.296Z,16.21
2018-06-23T11:22:44.298Z,16.17
2018-06-23T11:23:44.489Z,16.12
2018-06-23T11:24:44.322Z,16.02
2018-06-23T11:25:44.287Z,15.95
2018-06-23T11:26:44.287Z,15.90
2018-06-23T11:27:44.288Z,15.84
2018-06-23T11:28:44.300Z,15.68
2018-06-23T11:29:44.290Z,15.75
2018-06-23T11:30:44.292Z,15.70
2018-06-23T11:31:44.302Z,15.77
2018-06-23T11:32:44.293Z,15.75
2018-06-23T11:33:44.297Z,15.64
2018-06-23T11:34:44.301Z,15.65
2018-06-23T11:35:44.295Z,15.65
2018-06-23T11:36:44.297Z,15.70
2018-06-23T11:37:44.296Z,15.65
2018-06-23T11:38:44.296Z,15.65
2018-06-23T11:39:44.296Z,15.73
2018-06-23T11:40:44.300Z,15.79
2018-06-23T11:41:44.303Z,15.65
2018-06-23T11:42:44.299Z,15.64
2018-06-23T11:43:44.305Z,15.65
2018-06-23T11:44:44.328Z,15.62
2018-06-23T11:45:44.300Z,15.65
2018-06-23T11:46:44.313Z,15.68
2018-06-23T11:47:44.313Z,15.64
2018-06-23T11:48:44.305Z,15.67
2018-06-23T11:49:44.306Z,15.61
2018-06-23T11:50:44.319Z,15.62
2018-06-23T11:51:44.309Z,15.68
2018-06-23T11:52:44.305Z,15.65
2018-06-23T11:53:44.316Z,15.64
2018-06-23T11:54:44.308Z,15.61
2018-06-23T11:55:44.309Z,15.61
2018-06-23T11:56:44.309Z,15.67
2018-06-23T11:57:44.323Z,15.61
2018-06-23T11:58:44.309Z,15.72
2018-06-23T11:59:44.308Z,15.70
2018-06-23T12:00:44.524Z,15.68
2018-06-23T12:01:44.325Z,15.64
2018-06-23T12:02:44.310Z,15.61
2018-06-23T12:03:44.311Z,15.64
2018-06-23T12:04:44.315Z,15.62
2018-06-23T12:05:44.313Z,15.59
2018-06-23T12:06:44.324Z,15.59
2018-06-23T12:07:44.314Z,15.65
2018-06-23T12:08:44.314Z,15.73
2018-06-23T12:09:44.316Z,15.77
2018-06-23T12:10:44.327Z,15.88
2018-06-23T12:11:44.316Z,15.90
2018-06-23T12:12:44.316Z,15.92
2018-06-23T12:13:44.316Z,16.02
2018-06-23T12:14:44.318Z,16.15
2018-06-23T12:15:44.335Z,16.21
2018-06-23T12:16:44.337Z,16.24
2018-06-23T12:17:44.322Z,16.26
2018-06-23T12:18:44.321Z,16.31
2018-06-23T12:19:44.325Z,16.36
2018-06-23T12:20:44.333Z,16.31
2018-06-23T12:21:44.323Z,16.33
2018-06-23T12:22:44.325Z,16.33
2018-06-23T12:23:44.325Z,16.39
2018-06-23T12:24:44.327Z,16.35
2018-06-23T12:25:44.326Z,16.33
2018-06-23T12:26:44.329Z,16.42
2018-06-23T12:27:44.324Z,16.35
2018-06-23T12:28:44.330Z,16.39
2018-06-23T12:29:44.327Z,16.38
2018-06-23T12:30:44.329Z,16.46
2018-06-23T12:31:44.354Z,16.57
2018-06-23T12:32:44.330Z,16.53
2018-06-23T12:33:44.335Z,16.51
2018-06-23T12:34:44.332Z,16.47
2018-06-23T12:35:44.361Z,16.42
2018-06-23T12:36:44.355Z,16.51
2018-06-23T12:37:44.333Z,16.51
2018-06-23T12:38:44.346Z,16.68
2018-06-23T12:39:44.336Z,16.72
2018-06-23T12:40:44.335Z,16.71
2018-06-23T12:41:44.422Z,16.60
2018-06-23T12:42:44.359Z,16.76
2018-06-23T12:43:44.348Z,16.72
2018-06-23T12:44:44.337Z,16.74
2018-06-23T12:45:44.339Z,16.76
2018-06-23T12:46:44.368Z,16.74
2018-06-23T12:47:44.340Z,16.91
2018-06-23T12:48:44.342Z,17.01
2018-06-23T12:49:44.353Z,17.08
2018-06-23T12:50:44.355Z,17.16
2018-06-23T12:51:44.359Z,17.02
2018-06-23T12:52:44.356Z,17.12
2018-06-23T12:53:44.360Z,17.08
2018-06-23T12:54:44.347Z,16.96